Time;durP1;ratioP1;P1;durP2;ratioP2;P2;SDS_P1;SDS_P2;PMS_P1;PMS_P2;Temp;Humidity;BMP_temperature;BMP_pressure;BME280_temperature;BME280_humidity;BME280_pressure;Samples;Min_cycle;Max_cycle;Signal;HPM_P1;HPM_P2
2023/04/17 00:00:10;;;;;;;0.40;0.40;;;5.50;99.90;;;;;;5116405;27;20389;-49
2023/04/17 00:02:38;;;;;;;0.80;0.45;;;5.50;99.90;;;;;;5133076;27;20062;-49
2023/04/17 00:05:09;;;;;;;1.95;0.57;;;5.50;99.90;;;;;;5130242;27;20044;-49
2023/04/17 00:07:40;;;;;;;2.53;0.47;;;5.50;99.90;;;;;;5113298;28;20139;-49
2023/04/17 00:10:08;;;;;;;0.60;0.45;;;5.60;99.90;;;;;;5112356;28;20031;-49
2023/04/17 00:12:35;;;;;;;5.20;0.40;;;5.50;99.90;;;;;;5113416;28;20051;-49
2023/04/17 00:15:03;;;;;;;1.92;0.47;;;5.50;99.90;;;;;;5112164;28;20055;-48
2023/04/17 00:17:30;;;;;;;2.75;0.47;;;5.50;99.90;;;;;;5112627;27;20081;-49
2023/04/17 00:19:56;;;;;;;0.88;0.40;;;5.50;99.90;;;;;;5112274;28;20039;-49
2023/04/17 00:22:23;;;;;;;3.28;0.60;;;5.50;99.90;;;;;;5115369;27;20039;-48
2023/04/17 00:24:50;;;;;;;1.70;0.57;;;5.50;99.90;;;;;;5113364;28;20082;-48
2023/04/17 00:27:16;;;;;;;1.90;0.55;;;5.50;99.90;;;;;;5112164;28;20039;-49
2023/04/17 00:29:43;;;;;;;1.50;0.40;;;5.40;99.90;;;;;;5113140;28;20101;-49
2023/04/17 00:32:10;;;;;;;2.35;0.68;;;5.40;99.90;;;;;;5101314;27;20104;-49
2023/04/17 00:34:39;;;;;;;2.63;0.90;;;5.30;99.90;;;;;;5100720;28;20050;-48
2023/04/17 00:37:06;;;;;;;4.43;0.80;;;5.30;99.90;;;;;;5112766;27;20100;-48
2023/04/17 00:39:32;;;;;;;2.53;0.50;;;5.30;99.90;;;;;;5113032;28;20039;-48
2023/04/17 00:41:59;;;;;;;2.97;0.55;;;5.30;99.90;;;;;;5122850;27;20062;-49
2023/04/17 00:44:26;;;;;;;2.17;0.68;;;5.30;99.90;;;;;;5127643;27;20058;-49
2023/04/17 00:46:54;;;;;;;2.70;0.75;;;5.30;99.90;;;;;;5094313;28;20085;-49
2023/04/17 00:49:21;;;;;;;3.55;0.70;;;5.30;99.90;;;;;;5101698;27;20442;-51
2023/04/17 00:51:49;;;;;;;0.70;0.50;;;5.30;99.90;;;;;;5111385;27;20074;-48
2023/04/17 00:54:17;;;;;;;3.92;1.20;;;5.20;99.90;;;;;;5115036;27;20638;-49
2023/04/17 00:56:45;;;;;;;3.42;0.77;;;5.20;99.90;;;;;;5133129;27;20049;-48
2023/04/17 00:59:16;;;;;;;3.78;0.68;;;5.20;99.90;;;;;;5132178;27;20061;-49
2023/04/17 01:01:43;;;;;;;2.13;0.60;;;5.20;99.90;;;;;;5103233;28;20039;-48
2023/04/17 01:04:11;;;;;;;2.08;0.47;;;5.10;99.90;;;;;;5112909;28;20441;-51
2023/04/17 01:06:38;;;;;;;1.80;0.63;;;5.10;99.90;;;;;;5093920;28;20131;-49
2023/04/17 01:09:05;;;;;;;1.58;0.95;;;5.10;99.90;;;;;;5099032;27;20050;-49
2023/04/17 01:11:32;;;;;;;;;;;5.10;99.90;;;;;;5094619;28;20046;-48
2023/04/17 01:13:59;;;;;;;2.35;0.68;;;5.20;99.90;;;;;;5094329;28;19968;-48
2023/04/17 01:16:26;;;;;;;1.17;0.57;;;5.20;99.90;;;;;;5094269;28;20135;-49
2023/04/17 01:18:53;;;;;;;2.22;0.50;;;5.30;99.90;;;;;;5106929;27;20130;-48
2023/04/17 01:21:20;;;;;;;0.65;0.40;;;5.30;99.90;;;;;;5106667;27;20043;-50
2023/04/17 01:23:51;;;;;;;1.08;0.50;;;5.30;99.90;;;;;;5105483;28;20044;-49
2023/04/17 01:26:21;;;;;;;0.85;0.30;;;5.30;99.90;;;;;;5119101;27;20490;-48
2023/04/17 01:28:50;;;;;;;0.45;0.35;;;5.20;99.90;;;;;;5134383;27;20046;-49
2023/04/17 01:31:17;;;;;;;0.28;0.20;;;5.20;99.90;;;;;;5127581;27;20039;-48
2023/04/17 01:33:44;;;;;;;;;;;5.10;99.90;;;;;;5099199;28;20039;-50
2023/04/17 01:36:11;;;;;;;0.20;0.20;;;5.00;99.90;;;;;;5094047;28;20371;-50
2023/04/17 01:38:38;;;;;;;0.28;0.28;;;4.90;99.90;;;;;;5093685;28;20044;-49
2023/04/17 01:41:11;;;;;;;1.52;0.55;;;5.00;99.90;;;;;;5100098;28;20092;-50
2023/04/17 01:43:40;;;;;;;1.58;0.30;;;4.90;99.90;;;;;;5093904;28;20074;-49
2023/04/17 01:46:07;;;;;;;0.63;0.20;;;5.00;99.90;;;;;;5113448;27;20038;-49
2023/04/17 01:48:35;;;;;;;0.32;0.30;;;5.00;99.90;;;;;;5138192;27;20039;-48
2023/04/17 01:51:02;;;;;;;3.10;0.43;;;5.10;99.90;;;;;;5113733;27;20492;-48
2023/04/17 01:53:30;;;;;;;0.55;0.40;;;5.10;99.90;;;;;;5092814;28;20075;-49
2023/04/17 01:55:59;;;;;;;2.70;0.40;;;5.10;99.90;;;;;;5112009;28;20058;-48
2023/04/17 01:58:26;;;;;;;6.57;0.50;;;5.10;99.90;;;;;;5100940;28;20044;-48
2023/04/17 02:00:53;;;;;;;0.55;0.30;;;5.20;99.90;;;;;;5093599;28;20040;-49
2023/04/17 02:03:21;;;;;;;2.75;0.45;;;5.20;99.90;;;;;;5111818;28;20040;-49
2023/04/17 02:05:49;;;;;;;1.60;0.50;;;5.20;99.90;;;;;;5097973;28;20130;-50
2023/04/17 02:08:16;;;;;;;0.50;0.40;;;5.20;99.90;;;;;;5113256;27;20441;-48
2023/04/17 02:10:43;;;;;;;1.33;0.40;;;5.30;99.90;;;;;;5131937;27;20043;-48
2023/04/17 02:13:10;;;;;;;2.08;0.20;;;5.20;99.90;;;;;;5111964;28;20439;-49
2023/04/17 02:15:40;;;;;;;0.85;0.40;;;5.20;99.90;;;;;;5092224;28;20046;-48
2023/04/17 02:18:08;;;;;;;0.77;0.30;;;5.20;99.90;;;;;;5111346;28;20062;-53
2023/04/17 02:20:36;;;;;;;0.40;0.32;;;5.10;99.90;;;;;;5130400;28;20046;-49
2023/04/17 02:23:04;;;;;;;1.88;0.70;;;5.10;99.90;;;;;;5130282;28;20434;-48
2023/04/17 02:25:31;;;;;;;0.88;0.47;;;5.20;99.90;;;;;;5122931;28;20039;-48
2023/04/17 02:27:58;;;;;;;0.30;0.30;;;5.20;99.90;;;;;;5113137;28;20477;-48
2023/04/17 02:30:26;;;;;;;1.45;0.40;;;5.10;99.90;;;;;;5130883;28;20035;-48
2023/04/17 02:32:55;;;;;;;0.45;0.35;;;5.10;99.90;;;;;;5111472;28;20047;-49
2023/04/17 02:35:25;;;;;;;1.00;0.30;;;5.10;99.90;;;;;;5127286;28;20043;-48
2023/04/17 02:37:52;;;;;;;3.13;0.30;;;5.10;99.90;;;;;;5134950;28;20046;-50
2023/04/17 02:40:21;;;;;;;1.95;0.20;;;5.00;99.90;;;;;;5113153;28;20530;-48
2023/04/17 02:42:53;;;;;;;0.75;0.30;;;5.00;99.90;;;;;;5112461;27;20035;-48
2023/04/17 02:45:20;;;;;;;0.20;0.20;;;5.00;99.90;;;;;;5136517;27;20122;-50
2023/04/17 02:47:47;;;;;;;0.20;0.20;;;4.90;99.90;;;;;;5136799;27;20047;-49
2023/04/17 02:50:14;;;;;;;;;;;4.90;99.90;;;;;;5116981;28;20130;-49
2023/04/17 02:52:53;;;;;;;0.40;0.30;;;4.90;99.90;;;;;;5113217;28;20551;-51
2023/04/17 02:55:21;;;;;;;0.88;0.35;;;4.90;99.90;;;;;;5116241;28;20491;-50
2023/04/17 02:57:47;;;;;;;0.32;0.20;;;4.90;99.90;;;;;;5113131;28;20039;-48
2023/04/17 03:00:14;;;;;;;0.30;0.30;;;4.90;99.90;;;;;;5120871;28;20097;-48
2023/04/17 03:02:41;;;;;;;0.20;0.20;;;4.90;99.90;;;;;;5109707;28;20051;-48
2023/04/17 03:05:10;;;;;;;0.70;0.30;;;4.80;99.90;;;;;;5115383;28;20054;-50
2023/04/17 03:07:37;;;;;;;0.57;0.52;;;4.80;99.90;;;;;;5111770;28;20047;-51
2023/04/17 03:10:05;;;;;;;5.15;0.50;;;4.80;99.90;;;;;;5107032;28;20067;-48
2023/04/17 03:16:38;;;;;;;0.65;0.30;;;4.90;99.90;;;;;;5069126;28;20033;-48
2023/04/17 03:19:05;;;;;;;3.30;0.40;;;4.80;99.90;;;;;;5052634;28;20552;-48
2023/04/17 03:21:32;;;;;;;0.50;0.40;;;4.80;99.90;;;;;;5044935;28;20030;-49
2023/04/17 03:23:59;;;;;;;0.80;0.60;;;4.70;99.90;;;;;;5049497;28;20037;-48
2023/04/17 03:26:26;;;;;;;4.38;0.55;;;4.70;99.90;;;;;;5047302;28;20065;-48
2023/04/17 03:28:53;;;;;;;0.70;0.50;;;4.70;99.90;;;;;;5023158;28;20042;-48
2023/04/17 03:31:22;;;;;;;1.13;0.55;;;4.80;99.90;;;;;;5025589;28;20047;-48
2023/04/17 03:33:50;;;;;;;1.42;0.70;;;4.80;99.90;;;;;;5032246;28;20128;-48
2023/04/17 03:36:17;;;;;;;2.05;0.40;;;4.80;99.90;;;;;;5037377;28;20046;-49
2023/04/17 03:38:44;;;;;;;0.47;0.47;;;4.80;99.90;;;;;;5043164;28;20048;-48
2023/04/17 03:41:14;;;;;;;1.85;0.60;;;4.80;99.90;;;;;;5059240;28;20132;-48
2023/04/17 03:43:41;;;;;;;5.68;0.65;;;4.80;99.90;;;;;;5053086;28;20072;-50
2023/04/17 03:46:09;;;;;;;2.72;0.80;;;4.90;99.90;;;;;;5043516;28;20095;-48
2023/04/17 03:48:37;;;;;;;0.95;0.65;;;4.90;99.90;;;;;;5046217;28;20037;-48
2023/04/17 03:51:05;;;;;;;1.85;0.40;;;4.90;99.90;;;;;;5043967;28;20037;-48
2023/04/17 03:53:33;;;;;;;0.63;0.32;;;5.00;99.90;;;;;;5050488;28;20060;-49
2023/04/17 03:56:02;;;;;;;0.35;0.30;;;4.90;99.90;;;;;;5038446;28;20040;-48
2023/04/17 03:58:34;;;;;;;0.95;0.40;;;5.00;99.90;;;;;;5038296;28;20040;-48
2023/04/17 04:01:02;;;;;;;0.30;0.30;;;5.00;99.90;;;;;;5049528;28;20041;-48
2023/04/17 04:03:32;;;;;;;0.68;0.40;;;5.00;99.90;;;;;;5041468;28;20041;-48
2023/04/17 04:05:59;;;;;;;0.77;0.30;;;5.00;99.90;;;;;;5041209;28;20063;-48
2023/04/17 04:08:27;;;;;;;1.08;0.40;;;5.00;99.90;;;;;;5046544;28;20042;-49
2023/04/17 04:10:54;;;;;;;1.33;0.43;;;5.00;99.90;;;;;;5055791;28;20055;-48
2023/04/17 04:13:30;;;;;;;1.27;0.57;;;5.10;99.90;;;;;;5031466;28;20100;-49
2023/04/17 04:15:59;;;;;;;0.52;0.30;;;5.10;99.90;;;;;;5015649;28;20128;-48
2023/04/17 04:18:28;;;;;;;1.30;0.50;;;5.10;99.90;;;;;;5034840;28;20478;-48
2023/04/17 04:20:56;;;;;;;;;;;5.10;99.90;;;;;;5054228;28;20391;-48
2023/04/17 04:23:29;;;;;;;0.75;0.50;;;5.10;99.90;;;;;;5048206;28;19941;-48
2023/04/17 04:25:56;;;;;;;0.80;0.60;;;5.10;99.90;;;;;;5047215;28;20049;-48
2023/04/17 04:28:31;;;;;;;2.88;0.50;;;5.00;99.90;;;;;;5029429;28;20041;-48
2023/04/17 04:30:58;;;;;;;;;;;5.00;99.90;;;;;;5014350;28;20080;-48
2023/04/17 04:33:30;;;;;;;0.80;0.70;;;5.00;99.90;;;;;;5043087;28;20019;-48
2023/04/17 04:36:00;;;;;;;2.28;0.98;;;5.00;99.90;;;;;;5033397;28;20225;-48
2023/04/17 04:38:29;;;;;;;2.97;1.48;;;5.10;99.90;;;;;;5023847;28;20045;-48
2023/04/17 04:41:00;;;;;;;1.95;1.10;;;5.10;99.90;;;;;;5030175;28;20481;-48
2023/04/17 04:43:28;;;;;;;2.63;1.05;;;5.10;99.90;;;;;;5036323;28;20362;-48
2023/04/17 04:45:55;;;;;;;2.40;1.10;;;5.20;99.90;;;;;;5050695;28;20037;-48
2023/04/17 04:48:24;;;;;;;1.17;0.90;;;5.20;99.90;;;;;;5029613;28;20104;-48
2023/04/17 04:50:51;;;;;;;0.60;0.60;;;5.20;99.90;;;;;;5047628;28;20045;-48
2023/04/17 04:53:18;;;;;;;2.47;0.70;;;5.20;99.90;;;;;;5046204;28;20063;-48
2023/04/17 04:55:52;;;;;;;1.60;0.90;;;5.30;99.90;;;;;;5043819;28;20072;-49
2023/04/17 04:58:19;;;;;;;1.73;0.73;;;5.20;99.90;;;;;;5051842;28;20037;-51
2023/04/17 05:00:48;;;;;;;1.02;0.70;;;5.30;99.90;;;;;;5033464;28;20532;-48
2023/04/17 05:03:22;;;;;;;1.15;0.70;;;5.30;99.90;;;;;;5029935;28;20564;-48
2023/04/17 05:05:50;;;;;;;2.10;0.70;;;5.20;99.90;;;;;;5029457;28;20120;-49
2023/04/17 05:08:20;;;;;;;3.15;0.60;;;5.10;99.90;;;;;;5046544;28;20069;-48
2023/04/17 05:10:55;;;;;;;3.53;0.73;;;5.10;99.90;;;;;;5036487;28;20044;-48
2023/04/17 05:13:22;;;;;;;1.95;1.13;;;5.10;99.90;;;;;;5045782;28;20077;-48
2023/04/17 05:15:50;;;;;;;3.38;1.52;;;5.10;99.90;;;;;;5024604;28;20052;-50
2023/04/17 05:18:20;;;;;;;5.65;2.30;;;5.10;99.90;;;;;;5036784;28;20042;-48
2023/04/17 05:20:48;;;;;;;5.75;2.78;;;5.20;99.90;;;;;;5050849;28;20561;-50
2023/04/17 05:23:16;;;;;;;7.65;3.03;;;5.30;99.90;;;;;;5030744;28;20046;-49
2023/04/17 05:25:43;;;;;;;6.55;2.83;;;5.40;99.90;;;;;;5032886;28;20045;-48
2023/04/17 05:28:10;;;;;;;4.43;1.25;;;5.50;99.90;;;;;;5043230;28;20037;-49
2023/04/17 05:30:41;;;;;;;3.30;1.25;;;5.60;99.90;;;;;;5031469;28;20132;-50
2023/04/17 05:33:17;;;;;;;3.55;1.45;;;5.60;99.90;;;;;;5046777;28;20111;-48
2023/04/17 05:35:47;;;;;;;3.47;1.27;;;5.70;99.90;;;;;;5028374;28;20041;-49
2023/04/17 05:38:14;;;;;;;5.93;1.08;;;5.80;99.90;;;;;;5029858;28;20532;-49
2023/04/17 05:40:40;;;;;;;2.70;1.42;;;5.80;99.90;;;;;;5029553;28;20041;-49
2023/04/17 05:43:11;;;;;;;6.15;2.88;;;5.90;99.90;;;;;;5031260;28;20073;-50
2023/04/17 05:45:40;;;;;;;3.25;2.35;;;5.90;99.90;;;;;;5028580;28;20042;-48
2023/04/17 05:48:08;;;;;;;7.82;3.05;;;6.00;99.90;;;;;;5054358;28;20048;-50
2023/04/17 05:50:36;;;;;;;5.97;3.20;;;6.10;99.90;;;;;;5052229;28;20453;-49
2023/04/17 05:53:04;;;;;;;8.57;3.05;;;6.20;99.90;;;;;;5029546;28;20510;-53
2023/04/17 05:55:36;;;;;;;8.38;4.40;;;6.20;99.90;;;;;;5030466;28;20317;-48
2023/04/17 05:58:06;;;;;;;10.07;4.20;;;6.20;99.90;;;;;;5047042;28;20089;-48
2023/04/17 06:00:48;;;;;;;8.45;4.35;;;6.20;99.90;;;;;;5029927;28;20451;-48
2023/04/17 06:03:17;;;;;;;10.13;5.43;;;6.30;99.90;;;;;;5029227;28;20042;-48
2023/04/17 06:05:48;;;;;;;12.10;5.47;;;6.30;99.90;;;;;;5028194;28;20041;-48
2023/04/17 06:08:16;;;;;;;12.95;5.07;;;6.30;99.90;;;;;;5045143;28;20084;-49
2023/04/17 06:10:44;;;;;;;8.68;4.68;;;6.30;99.90;;;;;;5029721;28;20140;-48
2023/04/17 06:13:11;;;;;;;12.65;4.70;;;6.40;99.90;;;;;;5029488;28;20060;-48
2023/04/17 06:15:42;;;;;;;8.80;4.30;;;6.40;99.90;;;;;;5029159;28;20049;-49
2023/04/17 06:18:09;;;;;;;6.93;3.50;;;6.40;99.90;;;;;;5046252;28;20049;-48
2023/04/17 06:20:35;;;;;;;8.07;2.85;;;6.50;99.90;;;;;;5028879;28;20046;-48
2023/04/17 06:23:05;;;;;;;5.65;2.58;;;6.50;99.90;;;;;;5012953;28;20495;-48
2023/04/17 06:25:32;;;;;;;5.78;3.17;;;6.50;99.90;;;;;;5028053;28;20530;-48
2023/04/17 06:27:59;;;;;;;10.88;3.55;;;6.60;99.90;;;;;;5029924;28;20053;-50
2023/04/17 06:30:26;;;;;;;5.40;2.60;;;6.60;99.90;;;;;;5029176;28;20759;-48
2023/04/17 06:32:54;;;;;;;5.15;2.58;;;6.70;99.90;;;;;;5037124;28;20037;-48
2023/04/17 06:35:21;;;;;;;3.95;2.00;;;6.70;99.90;;;;;;5043311;28;20037;-48
2023/04/17 06:38:14;;;;;;;2.53;1.38;;;6.70;99.90;;;;;;5021830;28;20071;-49
2023/04/17 06:40:42;;;;;;;4.20;1.33;;;6.70;99.90;;;;;;5061270;28;20051;-48
2023/04/17 06:43:10;;;;;;;6.22;1.70;;;6.70;99.90;;;;;;5049555;28;20045;-48
2023/04/17 06:45:41;;;;;;;4.25;1.95;;;6.80;99.90;;;;;;5038469;28;20417;-48
2023/04/17 06:48:08;;;;;;;5.93;2.45;;;6.80;99.90;;;;;;5030674;28;20037;-49
2023/04/17 06:50:35;;;;;;;3.83;2.45;;;6.90;99.90;;;;;;5029789;28;20052;-48
2023/04/17 06:53:02;;;;;;;2.85;1.92;;;6.90;99.90;;;;;;5029665;28;20041;-48
2023/04/17 06:55:28;;;;;;;4.13;2.42;;;6.90;99.90;;;;;;5035315;28;20490;-48
2023/04/17 06:57:55;;;;;;;4.72;1.95;;;6.90;99.90;;;;;;5042383;28;20087;-48
2023/04/17 07:00:22;;;;;;;13.30;3.97;;;7.00;99.90;;;;;;5050297;28;20045;-49
2023/04/17 07:02:49;;;;;;;7.03;3.15;;;7.00;99.90;;;;;;5048487;28;20087;-48
2023/04/17 07:05:16;;;;;;;6.82;3.22;;;7.00;99.90;;;;;;5042231;28;20037;-48
2023/04/17 07:07:43;;;;;;;8.85;2.60;;;7.10;99.90;;;;;;5039550;28;20061;-48
2023/04/17 07:10:09;;;;;;;6.05;2.78;;;7.10;99.90;;;;;;5030366;28;20580;-48
2023/04/17 07:12:36;;;;;;;6.53;3.08;;;7.20;99.90;;;;;;5029227;28;20045;-48
2023/04/17 07:15:03;;;;;;;4.85;2.95;;;7.20;99.90;;;;;;5031680;28;20107;-49
2023/04/17 07:17:30;;;;;;;4.85;2.92;;;7.30;99.90;;;;;;5034903;28;20047;-48
2023/04/17 07:19:57;;;;;;;5.00;2.78;;;7.40;99.90;;;;;;5031834;28;20505;-48
2023/04/17 07:22:23;;;;;;;6.05;3.00;;;7.40;99.90;;;;;;5034014;28;20037;-48
2023/04/17 07:24:53;;;;;;;5.00;2.50;;;7.50;99.90;;;;;;5035156;28;20040;-48
2023/04/17 07:27:20;;;;;;;5.97;2.50;;;7.40;99.90;;;;;;5034122;28;20038;-49
2023/04/17 07:29:53;;;;;;;6.15;3.00;;;7.40;99.90;;;;;;5033510;28;20112;-48
2023/04/17 07:32:21;;;;;;;9.02;2.30;;;7.40;99.90;;;;;;5034122;28;20084;-48
2023/04/17 07:34:47;;;;;;;4.22;2.30;;;7.50;99.90;;;;;;5034701;28;20501;-48
2023/04/17 07:37:14;;;;;;;5.88;2.92;;;7.50;99.90;;;;;;5033819;28;20080;-49
2023/04/17 07:39:41;;;;;;;3.92;2.30;;;7.50;99.90;;;;;;5033254;28;20041;-48
2023/04/17 07:42:09;;;;;;;4.60;2.55;;;7.60;99.90;;;;;;5036645;28;20111;-48
2023/04/17 07:44:37;;;;;;;5.03;2.60;;;7.70;99.90;;;;;;5045682;28;20498;-49
2023/04/17 07:47:04;;;;;;;5.65;2.80;;;7.70;99.90;;;;;;5049653;28;20041;-48
2023/04/17 07:49:31;;;;;;;3.70;2.47;;;7.80;99.90;;;;;;5033612;28;20406;-49
2023/04/17 07:51:57;;;;;;;5.57;3.13;;;7.80;99.90;;;;;;5033271;28;20081;-48
2023/04/17 07:54:24;;;;;;;5.32;3.05;;;7.80;99.90;;;;;;5038262;28;20111;-49
2023/04/17 07:56:51;;;;;;;5.25;2.70;;;7.80;99.90;;;;;;5036142;28;20065;-48
2023/04/17 07:59:18;;;;;;;7.43;2.88;;;7.80;99.90;;;;;;5033010;28;20120;-48
2023/04/17 08:01:44;;;;;;;5.50;2.92;;;7.70;99.90;;;;;;5036947;28;20049;-48
2023/04/17 08:04:11;;;;;;;3.67;2.35;;;7.80;99.90;;;;;;5033375;28;20052;-48
2023/04/17 08:06:39;;;;;;;7.03;2.95;;;7.90;99.90;;;;;;5033587;28;20047;-48
2023/04/17 08:09:06;;;;;;;3.92;2.35;;;7.80;99.90;;;;;;5032072;28;20050;-48
2023/04/17 08:11:32;;;;;;;7.50;2.85;;;7.90;99.90;;;;;;5032907;28;20096;-49
2023/04/17 08:14:16;;;;;;;4.63;2.50;;;7.90;99.90;;;;;;5036556;28;20183;-48
2023/04/17 08:16:42;;;;;;;7.20;2.90;;;7.90;99.90;;;;;;5032956;28;20560;-49
2023/04/17 08:19:09;;;;;;;5.32;3.03;;;7.90;99.90;;;;;;5043157;28;20476;-48
2023/04/17 08:21:36;;;;;;;3.30;2.53;;;8.00;99.90;;;;;;5052829;28;20076;-48
2023/04/17 08:24:04;;;;;;;4.10;2.50;;;7.90;99.90;;;;;;5046466;28;20444;-49
2023/04/17 08:26:31;;;;;;;6.22;2.90;;;7.90;99.90;;;;;;5046693;28;20041;-49
2023/04/17 08:29:00;;;;;;;4.55;2.83;;;7.80;99.90;;;;;;5045730;28;20069;-48
2023/04/17 08:31:27;;;;;;;4.68;2.78;;;7.80;99.90;;;;;;5031995;28;20523;-48
2023/04/17 08:33:54;;;;;;;7.15;2.60;;;7.70;99.90;;;;;;5032469;28;20049;-48
2023/04/17 08:36:39;;;;;;;3.65;2.65;;;7.70;99.90;;;;;;5034804;28;20512;-48
2023/04/17 08:39:06;;;;;;;8.60;2.55;;;7.60;99.90;;;;;;5043964;28;20060;-48
2023/04/17 08:41:47;;;;;;;4.32;2.65;;;7.70;99.90;;;;;;5052629;28;20120;-52
2023/04/17 08:44:18;;;;;;;3.85;2.00;;;7.80;99.90;;;;;;5052729;28;20041;-50
2023/04/17 08:46:45;;;;;;;2.65;1.50;;;7.80;99.90;;;;;;5044526;28;20474;-48
2023/04/17 08:49:11;;;;;;;2.45;1.50;;;7.90;99.90;;;;;;5043706;28;20657;-49
2023/04/17 08:51:39;;;;;;;3.20;1.67;;;8.00;99.90;;;;;;5052898;28;20053;-48
2023/04/17 08:54:05;;;;;;;6.38;1.73;;;8.20;99.90;;;;;;5045510;28;20049;-49
2023/04/17 08:56:32;;;;;;;2.45;1.65;;;8.50;99.90;;;;;;5044275;28;20453;-48
2023/04/17 08:58:59;;;;;;;2.80;2.13;;;8.70;99.90;;;;;;5036398;28;20136;-48
2023/04/17 09:01:27;;;;;;;5.22;2.65;;;8.90;99.90;;;;;;5032405;28;20065;-49
2023/04/17 09:03:55;;;;;;;1.77;1.20;;;9.10;99.90;;;;;;5032101;28;20076;-48
2023/04/17 09:06:22;;;;;;;1.92;1.35;;;9.40;99.90;;;;;;5031967;28;20037;-49
2023/04/17 09:08:58;;;;;;;4.97;1.60;;;9.50;99.90;;;;;;5040101;28;20033;-49
2023/04/17 09:11:25;;;;;;;3.53;1.40;;;9.80;99.90;;;;;;5049871;22;20096;-48
2023/04/17 09:13:52;;;;;;;2.13;1.13;;;10.00;99.90;;;;;;5125028;27;20081;-50
2023/04/17 09:16:19;;;;;;;1.88;1.45;;;10.00;99.90;;;;;;5112160;28;20044;-48
2023/04/17 09:18:46;;;;;;;2.20;1.38;;;10.20;99.90;;;;;;5111867;28;20044;-48
2023/04/17 09:21:17;;;;;;;3.08;1.55;;;10.50;99.90;;;;;;5127782;27;20436;-48
2023/04/17 09:23:54;;;;;;;2.38;1.30;;;10.60;99.90;;;;;;5132592;27;20047;-48
2023/04/17 09:26:32;;;;;;;2.60;1.40;;;10.80;99.90;;;;;;5132569;27;20051;-48
2023/04/17 09:29:03;;;;;;;1.27;1.10;;;10.80;99.90;;;;;;5126960;27;20113;-48
2023/04/17 09:31:33;;;;;;;3.78;1.42;;;11.10;99.90;;;;;;5132524;27;20064;-48
2023/04/17 09:34:08;;;;;;;3.00;1.40;;;11.30;99.90;;;;;;5132508;27;20122;-48
2023/04/17 09:36:37;;;;;;;2.00;1.40;;;11.50;99.90;;;;;;5129040;27;20070;-48
2023/04/17 09:39:15;;;;;;;1.73;1.52;;;11.50;99.90;;;;;;5130200;27;20092;-47
2023/04/17 09:41:42;;;;;;;1.85;1.40;;;11.50;99.90;;;;;;5131948;27;20084;-48
2023/04/17 09:44:10;;;;;;;3.88;1.40;;;11.50;99.90;;;;;;5130570;27;20070;-48
2023/04/17 09:46:40;;;;;;;1.25;1.10;;;11.50;99.90;;;;;;5126969;27;20042;-48
2023/04/17 09:49:39;;;;;;;1.52;1.00;;;11.50;99.90;;;;;;5132337;27;20051;-48
2023/04/17 09:52:06;;;;;;;1.85;1.20;;;11.70;99.90;;;;;;5132496;27;20051;-47
2023/04/17 09:54:36;;;;;;;2.95;1.13;;;11.70;99.90;;;;;;5124578;27;20038;-48
2023/04/17 09:57:09;;;;;;;1.30;1.20;;;11.80;99.90;;;;;;5132552;27;20035;-49
2023/04/17 09:59:40;;;;;;;2.05;1.42;;;11.90;99.90;;;;;;5127081;27;20463;-48
2023/04/17 10:02:08;;;;;;;5.95;1.38;;;12.00;99.90;;;;;;5132349;27;20043;-49
2023/04/17 10:04:38;;;;;;;2.83;2.25;;;12.20;99.90;;;;;;5132103;27;20047;-49
2023/04/17 10:07:05;;;;;;;3.45;2.15;;;12.20;99.90;;;;;;5132409;27;20411;-49
2023/04/17 10:09:32;;;;;;;2.72;1.90;;;12.40;99.90;;;;;;5126899;27;20045;-49
2023/04/17 10:12:00;;;;;;;2.65;1.80;;;12.40;99.90;;;;;;5131790;27;20419;-47
2023/04/17 10:14:31;;;;;;;2.13;1.63;;;12.70;99.90;;;;;;5131911;27;20612;-47
2023/04/17 10:16:58;;;;;;;1.80;1.50;;;12.70;99.90;;;;;;5131637;27;20039;-48
2023/04/17 10:19:33;;;;;;;2.33;1.50;;;12.90;99.90;;;;;;5100299;28;20089;-48
2023/04/17 10:22:14;;;;;;;1.70;1.60;;;13.00;99.90;;;;;;5111861;28;20538;-48
2023/04/17 10:24:41;;;;;;;2.30;1.70;;;13.00;99.90;;;;;;5111461;28;20043;-48
2023/04/17 10:27:23;;;;;;;;;;;13.00;99.90;;;;;;5123393;28;20055;-48
2023/04/17 10:30:02;;;;;;;1.90;1.30;;;12.70;99.90;;;;;;5131970;28;19958;-48
2023/04/17 10:32:31;;;;;;;2.25;1.73;;;12.40;99.90;;;;;;5132174;27;20100;-47
2023/04/17 10:35:22;;;;;;;2.15;1.92;;;12.30;99.90;;;;;;5131048;27;20051;-49
2023/04/17 10:37:51;;;;;;;4.78;1.85;;;12.10;99.90;;;;;;5118891;27;20088;-48
2023/04/17 10:40:22;;;;;;;2.38;1.58;;;12.00;99.90;;;;;;5111020;28;20039;-48
2023/04/17 10:43:22;;;;;;;1.67;1.58;;;11.80;99.90;;;;;;5110907;28;20476;-48
2023/04/17 10:46:11;;;;;;;1.58;1.48;;;11.80;99.90;;;;;;5114982;27;20048;-47
2023/04/17 10:48:45;;;;;;;2.08;1.88;;;12.00;99.90;;;;;;5125690;28;20039;-47
2023/04/17 10:51:27;;;;;;;2.58;1.80;;;12.10;99.90;;;;;;5132798;27;20058;-47
2023/04/17 10:53:56;;;;;;;1.70;1.55;;;12.00;99.90;;;;;;5128730;27;20047;-49
2023/04/17 10:56:35;;;;;;;2.88;1.80;;;11.80;99.90;;;;;;5113935;28;20062;-47
2023/04/17 10:59:03;;;;;;;1.85;1.65;;;11.50;99.90;;;;;;5114843;28;20051;-48
2023/04/17 11:01:35;;;;;;;2.25;1.80;;;11.40;99.90;;;;;;5123901;27;20050;-48
2023/04/17 11:04:04;;;;;;;8.05;1.77;;;11.30;99.90;;;;;;5127772;27;20044;-48
2023/04/17 11:06:32;;;;;;;3.50;1.98;;;11.20;99.90;;;;;;5133818;27;20047;-48
2023/04/17 11:08:59;;;;;;;3.50;2.33;;;11.10;99.90;;;;;;5134473;27;20403;-48
2023/04/17 11:11:26;;;;;;;2.88;2.38;;;10.90;99.90;;;;;;5117264;27;20487;-47
2023/04/17 11:14:15;;;;;;;3.25;2.53;;;10.70;99.90;;;;;;5130343;27;20403;-48
2023/04/17 11:16:43;;;;;;;3.60;2.30;;;10.40;99.90;;;;;;5131516;27;20044;-47
2023/04/17 11:19:12;;;;;;;2.80;2.50;;;10.30;99.90;;;;;;5133884;27;20047;-50
2023/04/17 11:21:43;;;;;;;3.50;2.70;;;10.30;99.90;;;;;;5135078;27;20032;-50
2023/04/17 11:24:10;;;;;;;3.60;2.88;;;10.20;99.90;;;;;;5134235;27;20035;-48
2023/04/17 11:26:43;;;;;;;3.30;2.88;;;10.20;99.90;;;;;;5129301;27;20043;-48
2023/04/17 11:29:18;;;;;;;4.40;3.30;;;10.20;99.90;;;;;;5134898;27;20051;-48
2023/04/17 11:31:45;;;;;;;4.05;2.95;;;10.10;99.90;;;;;;5129468;27;20039;-49
2023/04/17 11:34:14;;;;;;;3.65;2.83;;;10.10;99.90;;;;;;5135088;27;20047;-49
2023/04/17 11:36:50;;;;;;;5.10;3.45;;;10.00;99.90;;;;;;5132345;27;20554;-48
2023/04/17 11:39:19;;;;;;;4.78;3.08;;;9.90;99.90;;;;;;5117541;27;20042;-49
2023/04/17 11:41:45;;;;;;;5.22;2.80;;;9.80;99.90;;;;;;5134019;27;20484;-48
2023/04/17 11:44:13;;;;;;;6.40;3.88;;;9.70;99.90;;;;;;5135031;27;20063;-48
2023/04/17 11:46:40;;;;;;;4.82;3.47;;;9.60;99.90;;;;;;5129732;27;20515;-48
2023/04/17 11:49:07;;;;;;;4.97;3.45;;;9.60;99.90;;;;;;5134736;27;20118;-49
2023/04/17 11:51:35;;;;;;;4.90;3.65;;;9.50;99.90;;;;;;5133486;27;20556;-50
2023/04/17 11:54:02;;;;;;;3.63;3.15;;;9.50;99.90;;;;;;5134779;27;20100;-51
2023/04/17 11:56:29;;;;;;;6.07;3.80;;;9.40;99.90;;;;;;5135084;27;20039;-48
2023/04/17 11:58:58;;;;;;;4.93;3.20;;;9.40;99.90;;;;;;5134443;27;20047;-48
2023/04/17 12:01:26;;;;;;;5.90;3.30;;;9.30;99.90;;;;;;5129771;27;20153;-51
2023/04/17 12:03:55;;;;;;;5.35;3.60;;;9.20;99.90;;;;;;5134497;27;20521;-49
2023/04/17 12:06:23;;;;;;;7.72;3.35;;;9.30;99.90;;;;;;5133478;27;20055;-48
2023/04/17 12:08:52;;;;;;;5.75;3.67;;;9.30;99.90;;;;;;5128964;27;20087;-49
2023/04/17 12:11:24;;;;;;;7.03;4.13;;;9.40;99.90;;;;;;5126216;27;20045;-49
2023/04/17 12:13:52;;;;;;;4.97;3.60;;;9.40;99.90;;;;;;5134440;27;20051;-49
2023/04/17 12:16:19;;;;;;;4.22;3.40;;;9.40;99.90;;;;;;5133957;27;20035;-48
2023/04/17 12:18:46;;;;;;;4.32;3.28;;;9.40;99.90;;;;;;5142154;27;20035;-49
2023/04/17 12:21:13;;;;;;;5.20;3.25;;;9.50;99.90;;;;;;5130825;27;20092;-49
2023/04/17 12:23:40;;;;;;;6.40;3.72;;;9.60;99.90;;;;;;5130157;27;20496;-48
2023/04/17 12:26:08;;;;;;;5.43;3.47;;;9.70;99.90;;;;;;5133518;27;20073;-48
2023/04/17 12:28:35;;;;;;;6.45;4.03;;;9.90;99.90;;;;;;5133565;27;20407;-48
2023/04/17 12:31:03;;;;;;;5.65;4.07;;;9.90;99.90;;;;;;5133326;27;20128;-49
2023/04/17 12:33:31;;;;;;;5.93;4.63;;;9.90;99.90;;;;;;5127501;27;20043;-49
2023/04/17 12:36:02;;;;;;;8.60;5.10;;;9.90;99.90;;;;;;5131065;27;20473;-49
2023/04/17 12:38:30;;;;;;;6.35;4.35;;;9.90;99.90;;;;;;5133494;27;20047;-46
2023/04/17 12:40:56;;;;;;;8.00;4.72;;;9.90;99.90;;;;;;5133889;27;20054;-50
2023/04/17 12:43:23;;;;;;;7.45;5.10;;;9.90;99.90;;;;;;5129305;27;20039;-48
2023/04/17 12:45:51;;;;;;;7.47;4.40;;;9.90;99.90;;;;;;5128879;27;20043;-49
2023/04/17 12:48:18;;;;;;;6.20;4.15;;;10.00;99.90;;;;;;5125508;27;20088;-48
2023/04/17 12:50:45;;;;;;;5.93;4.18;;;10.00;99.90;;;;;;5132871;27;20080;-48
2023/04/17 12:53:13;;;;;;;6.38;4.40;;;10.00;99.90;;;;;;5133785;27;20097;-49
2023/04/17 12:55:42;;;;;;;6.20;4.70;;;10.10;99.90;;;;;;5127888;27;20035;-48
2023/04/17 12:58:10;;;;;;;9.27;4.95;;;10.10;99.90;;;;;;5118575;27;20101;-50
2023/04/17 13:00:39;;;;;;;7.55;4.90;;;10.30;99.90;;;;;;5131761;27;20330;-48
2023/04/17 13:03:06;;;;;;;7.20;4.60;;;10.50;99.90;;;;;;5132808;27;20058;-48
2023/04/17 13:05:33;;;;;;;5.55;3.90;;;10.80;99.90;;;;;;5131825;27;20046;-49
2023/04/17 13:08:00;;;;;;;4.63;3.97;;;11.10;99.90;;;;;;5133226;27;20508;-49